Pagrindinis puslapis
METAR-TAF:

METAR-TAF

Oro uostai :

Nica, Prancūzija

platuma: 43-39N, ilguma: 007-12E, Aukštis: 4 m

Dabartinis oras

Ataskaita buvo paskelbta 17 minutes, ne 04:30 UTC
Vėjas 10 kt iš Šiaurės Vakarų
Temperatūra 7°C
Drėgmė 93%
Slėgis 1021 hPa
Matomumas 10 km arba daugiau
Su prošvaistėmis ne aukštis 2000 ft

METAR: LFMN 180430Z 32010KT 9999 BKN020 07/06 Q1021 NOSIG

Laikas: 05:47 (04:47 UTC)

Prognozė

Ataskaita buvo paskelbta 2 valandos ir 47 minutes, ne 02:00 UTC
Prognozė galioja nuo 18 metu 03 UTC su 19 metu 09 UTC
Vėjas 10 kt iš Šiaurės/Šiaurės Vakarų
Matomumas 10 km arba daugiau
Išsisklaidę debesys ne aukštis 9000 ft
Išsisklaidę debesys ne aukštis 16000 ft
Tikimybė 40% :
Laikinai
nuo 18 metu 03 UTC su 18 metu 08 UTC
Su prošvaistėmis ne aukštis 1400 ft
Tapsmas
nuo 18 metu 10 UTC su 18 metu 12 UTC
Vėjas 5 kt nuo kintamojo kryptimis
Tapsmas
nuo 18 metu 17 UTC su 18 metu 19 UTC
Vėjas 10 kt iš Šiaurės/Šiaurės Vakarų

TAF: LFMN 180200Z 1803/1909 34010KT 9999 SCT090 SCT160 PROB40 TEMPO 1803/1808 BKN014 BECMG 1810/1812 VRB05KT BECMG 1817/1819 34010KT

Orai ataskaitas ir orų prognozės (METAR, TAF).

turimą stotys yra geltonos ir raudonos taškus žemėlapyje.

Perkelti pele per norėdami pamatyti stoties vardą.

Tada spustelėkite, norėdami matyti oro stebėjimo ir prognozės.

Norėdami pakeisti žemėlapį: spustelėkite ant žalios mygtukų su juodo kryžiaus žemyn,; žalią mygtuką su brūkšneliu, jei norite nutolinti; arba žalių rodyklių gretimoms žemėlapius.


METAR-TAF: